KCPS

St Louis Downtown Airport

Cahokia/St Louis, Illinois, USA
METAR KCPS 170153Z 18004KT 10SM CLR 08/M03 A3005 RMK AO2 SLP178 T00831028 $
Observed Flight Rules
Dec-17 @ 01:53 UTC (40 minutes ago) Visual Flight Rules
Wind Visibility Clouds
180° at 4 knots 10 miles
  • Clear skies
Temperatures Readings
Current 8°C / 46°F
Dewpoint -3°C / 27°F
Humidity 46%
Altimeter 30.05" Hg
Pressure 1017.8 hPa
Elevation 126
METAR KCPS 170153Z 18004KT 10SM CLR 08/M03 A3005 RMK AO2 SLP178 T00831028 $
Observed Flight Rules
Dec-17 @ 01:53 UTC
(40 minutes ago)
VFR
Wind Visibility
180° at 4 knots 10 miles
Clouds
  • Clear skies
Temperature Dewpoint
8°C / 46°F -3°C / 27°F
Humidity Altimeter Pressure
46% 30.05" Hg 1017.8 hPa